Impacts TAF Board
For situational awareness. Not to be used for flight planning purposes.
IDs:

KJFK - New York/Kennedy Int, NY, US

Issued at 0837 UTC 18 Jan 2019
Updated at 1004 UTC 18 Jan 2019
Potential Impact None Slight Moderate High
Time<<18/23Z 19/00Z 19/01Z 19/02Z 19/03Z 19/04Z 19/05Z 19/06Z 19/07Z 19/08Z 19/09Z 19/10Z 19/11Z>>
Type PRVL PRVL PRVL PRVL PRVL PRVL PRVL PRVL PRVL PRVL PRVL PRVL PRVL
VIS >6 >6 >6 >6 >6 >6 >6 >6 >6 >6 >6 >6 >6
CIG -- -- -- -- -- -- -- -- -- -- -- -- --
Cover SCT SCT SCT SCT SCT SCT FEW FEW FEW FEW FEW FEW FEW
FltCat VFR VFR VFR VFR VFR VFR VFR VFR VFR VFR VFR VFR VFR
WX -- -- -- -- -- -- -- -- -- -- -- -- --
WDir 280 280 290 290 290 290 340 340 340 340 340 340 340
WSpd 7 7 6 6 6 6 7 7 7 7 7 7 7
WGst -- -- -- -- -- -- -- -- -- -- -- -- --
Raw TAF
KJFK 180837Z 1809/1912 04005KT 4SM -SN BKN025 OVC040
  TEMPO 1809/1811 2SM -SN BKN008 OVC015
  FM181300 05004KT 4SM BR OVC008
  FM181600 VRB04KT 6SM BR BKN010
  FM182100 29005KT P6SM SCT015
  FM182300 28007KT P6SM SCT025
  FM190100 29006KT P6SM SCT250
  FM190500 34007KT P6SM FEW250


METAR Board
Radar Display
Forecast Discussion
For situational awareness. Not to be used for flight planning purposes.